createdAt,value
2019-03-04T00:01:40.173Z,59.20
2019-03-04T00:04:08.416Z,58.74
2019-03-04T00:06:36.704Z,58.48
2019-03-04T00:09:05.824Z,58.79
2019-03-04T00:11:34.118Z,58.73
2019-03-04T00:14:05.393Z,58.35
2019-03-04T00:16:33.675Z,58.63
2019-03-04T00:19:01.926Z,58.59
2019-03-04T00:21:30.206Z,57.81
2019-03-04T00:23:58.491Z,58.01
2019-03-04T00:26:26.741Z,57.89
2019-03-04T00:28:55.021Z,58.00
2019-03-04T00:31:23.270Z,58.61
2019-03-04T00:33:51.591Z,58.24
2019-03-04T00:36:19.874Z,58.06
2019-03-04T00:38:48.161Z,57.47
2019-03-04T00:41:16.451Z,58.06
2019-03-04T00:43:44.704Z,58.27
2019-03-04T00:46:12.964Z,58.45
2019-03-04T00:48:41.242Z,57.92
2019-03-04T00:51:10.291Z,57.92
2019-03-04T00:53:38.553Z,57.94
2019-03-04T00:56:06.814Z,58.24
2019-03-04T00:58:35.069Z,58.30
2019-03-04T01:01:03.321Z,58.05
2019-03-04T01:03:31.593Z,58.17
2019-03-04T01:05:59.841Z,58.35
2019-03-04T01:08:28.117Z,57.94
2019-03-04T01:10:56.358Z,57.98
2019-03-04T01:13:24.639Z,57.66
2019-03-04T01:15:52.887Z,57.80
2019-03-04T01:18:21.177Z,57.27
2019-03-04T01:20:49.427Z,56.80
2019-03-04T01:23:17.707Z,57.70
2019-03-04T01:25:47.390Z,58.17
2019-03-04T01:28:15.661Z,57.97
2019-03-04T01:30:43.905Z,56.80
2019-03-04T01:33:12.174Z,56.77
2019-03-04T01:35:41.765Z,57.27
2019-03-04T01:38:10.048Z,56.77
2019-03-04T01:40:38.337Z,57.43
2019-03-04T01:43:06.579Z,57.09
2019-03-04T01:45:34.904Z,56.33
2019-03-04T01:48:03.162Z,55.82
2019-03-04T01:50:31.411Z,56.65
2019-03-04T01:52:59.697Z,56.82
2019-03-04T01:55:27.958Z,56.27
2019-03-04T01:57:56.206Z,55.95
2019-03-04T02:00:24.467Z,55.46
2019-03-04T02:02:54.261Z,55.86
2019-03-04T02:05:22.510Z,56.50
2019-03-04T02:07:51.758Z,57.17
2019-03-04T02:10:20.372Z,57.10
2019-03-04T02:12:48.901Z,58.57
2019-03-04T02:15:20.979Z,58.35
2019-03-04T02:17:49.265Z,59.37
2019-03-04T02:20:18.791Z,60.04
2019-03-04T02:22:48.240Z,60.28
2019-03-04T02:25:20.903Z,59.63
2019-03-04T02:27:52.224Z,60.28
2019-03-04T02:30:22.922Z,59.67
2019-03-04T02:32:51.181Z,58.94
2019-03-04T02:35:19.427Z,58.56
2019-03-04T02:37:47.733Z,56.82
2019-03-04T02:40:16.008Z,57.22
2019-03-04T02:42:44.251Z,58.23
2019-03-04T02:45:15.814Z,58.85
2019-03-04T02:47:44.067Z,60.04
2019-03-04T02:50:12.334Z,59.58
2019-03-04T02:52:40.587Z,58.55
2019-03-04T02:55:10.345Z,58.46
2019-03-04T02:57:40.612Z,59.16
2019-03-04T03:00:12.391Z,59.58
2019-03-04T03:02:42.293Z,59.10
2019-03-04T03:05:10.559Z,59.51
2019-03-04T03:07:38.837Z,58.94
2019-03-04T03:10:09.429Z,60.19
2019-03-04T03:12:37.720Z,59.84
2019-03-04T03:15:08.406Z,59.92
2019-03-04T03:17:36.634Z,60.02
2019-03-04T03:20:10.696Z,60.33
2019-03-04T03:22:38.980Z,59.93
2019-03-04T03:25:09.369Z,59.60
2019-03-04T03:27:37.657Z,58.84
2019-03-04T03:30:11.808Z,60.21
2019-03-04T03:32:40.115Z,60.25
2019-03-04T03:35:09.577Z,59.61
2019-03-04T03:37:37.899Z,58.52
2019-03-04T03:40:12.438Z,58.80
2019-03-04T03:42:40.691Z,59.91
2019-03-04T03:45:10.311Z,59.42
2019-03-04T03:47:38.570Z,58.21
2019-03-04T03:50:12.142Z,57.71
2019-03-04T03:52:40.430Z,57.80
2019-03-04T03:55:11.032Z,57.46
2019-03-04T03:57:39.325Z,59.08
2019-03-04T04:00:22.039Z,59.00
2019-03-04T04:02:50.334Z,59.04
2019-03-04T04:05:18.595Z,59.75
2019-03-04T04:07:46.877Z,59.26
2019-03-04T04:10:16.578Z,59.41
2019-03-04T04:12:46.399Z,59.78
2019-03-04T04:15:15.810Z,59.65
2019-03-04T04:17:44.063Z,59.01
2019-03-04T04:20:12.877Z,58.12
2019-03-04T04:22:41.135Z,58.56
2019-03-04T04:25:11.880Z,58.61
2019-03-04T04:27:40.172Z,58.35
2019-03-04T04:30:11.895Z,58.35
2019-03-04T04:32:43.609Z,58.28
2019-03-04T04:35:11.893Z,58.51
2019-03-04T04:37:40.158Z,57.75
2019-03-04T04:40:11.049Z,58.46
2019-03-04T04:42:39.309Z,58.65
2019-03-04T04:45:08.924Z,58.32
2019-03-04T04:47:38.343Z,58.89
2019-03-04T04:50:09.896Z,58.85
2019-03-04T04:52:38.184Z,57.93
2019-03-04T04:55:06.441Z,58.32
2019-03-04T04:57:34.734Z,58.99
2019-03-04T05:00:03.022Z,59.30
2019-03-04T05:02:31.275Z,59.50
2019-03-04T05:05:01.890Z,59.60
2019-03-04T05:07:30.145Z,59.57
2019-03-04T05:09:58.423Z,58.70
2019-03-04T05:12:26.703Z,58.97
2019-03-04T05:14:54.986Z,58.36
2019-03-04T05:17:23.247Z,56.63
2019-03-04T05:19:51.542Z,56.20
2019-03-04T05:22:19.884Z,56.54
2019-03-04T05:24:48.181Z,56.02
2019-03-04T05:27:16.445Z,57.73
2019-03-04T05:29:45.986Z,57.78
2019-03-04T05:32:14.483Z,57.25
2019-03-04T05:34:42.747Z,57.07
2019-03-04T05:37:11.012Z,56.75
2019-03-04T05:39:39.282Z,55.89
2019-03-04T05:42:07.558Z,56.57
2019-03-04T05:44:35.851Z,54.91
2019-03-04T05:47:04.113Z,55.49
2019-03-04T05:49:32.404Z,56.53
2019-03-04T05:52:00.740Z,57.13
2019-03-04T05:54:28.992Z,58.24
2019-03-04T05:56:57.276Z,58.71
2019-03-04T05:59:26.758Z,58.77
2019-03-04T06:01:58.275Z,58.05
2019-03-04T06:04:26.539Z,57.63
2019-03-04T06:06:59.369Z,58.20
2019-03-04T06:09:27.626Z,58.06
2019-03-04T06:11:55.923Z,56.93
2019-03-04T06:14:24.188Z,55.70
2019-03-04T06:16:52.491Z,54.73
2019-03-04T06:19:20.764Z,55.69
2019-03-04T06:21:49.048Z,56.36
2019-03-04T06:24:17.302Z,56.23
2019-03-04T06:26:45.578Z,55.67
2019-03-04T06:29:13.848Z,55.50
2019-03-04T06:31:42.172Z,54.99
2019-03-04T06:34:10.408Z,56.45
2019-03-04T06:36:38.687Z,57.40
2019-03-04T06:39:07.042Z,58.36
2019-03-04T06:41:35.327Z,58.51
2019-03-04T06:44:03.606Z,58.67
2019-03-04T06:46:31.902Z,59.23
2019-03-04T06:49:00.161Z,60.02
2019-03-04T06:51:36.834Z,60.22
2019-03-04T06:54:08.444Z,60.40
2019-03-04T06:56:39.983Z,60.80
2019-03-04T06:59:29.403Z,60.85
2019-03-04T07:02:11.000Z,60.58
2019-03-04T07:04:42.517Z,61.30
2019-03-04T07:07:10.783Z,59.85
2019-03-04T07:09:40.679Z,59.23
2019-03-04T07:12:08.950Z,58.76
2019-03-04T07:14:37.214Z,59.65
2019-03-04T07:17:05.477Z,59.22
2019-03-04T07:19:33.749Z,59.43
2019-03-04T07:22:02.006Z,58.60
2019-03-04T07:24:30.293Z,57.46
2019-03-04T07:26:58.568Z,56.71
2019-03-04T07:29:26.852Z,56.84
2019-03-04T07:31:55.128Z,56.83
2019-03-04T07:34:23.401Z,56.32
2019-03-04T07:36:51.671Z,55.82
2019-03-04T07:39:19.970Z,57.69
2019-03-04T07:41:48.228Z,57.19
2019-03-04T07:44:16.496Z,57.52
2019-03-04T07:46:44.763Z,57.01
2019-03-04T07:49:13.157Z,55.34
2019-03-04T07:51:41.412Z,55.04
2019-03-04T07:54:09.668Z,54.21
2019-03-04T07:56:38.919Z,55.38
2019-03-04T07:59:08.435Z,55.67
2019-03-04T08:01:39.773Z,54.14
2019-03-04T08:04:08.032Z,52.80
2019-03-04T08:06:36.301Z,53.05
2019-03-04T08:09:20.151Z,54.30
2019-03-04T08:12:03.357Z,53.68
2019-03-04T08:14:31.623Z,53.38
2019-03-04T08:16:59.912Z,52.81
2019-03-04T08:19:28.170Z,52.31
2019-03-04T08:21:56.436Z,52.83
2019-03-04T08:24:24.697Z,51.83
2019-03-04T08:26:52.991Z,51.66
2019-03-04T08:29:21.279Z,50.72
2019-03-04T08:31:49.542Z,50.56
2019-03-04T08:34:17.816Z,49.62
2019-03-04T08:36:46.072Z,48.93
2019-03-04T08:39:14.360Z,48.63
2019-03-04T08:41:42.632Z,50.19
2019-03-04T08:44:10.891Z,49.01
2019-03-04T08:46:39.174Z,47.50
2019-03-04T08:49:07.439Z,47.72
2019-03-04T08:51:35.718Z,47.45
2019-03-04T08:54:03.989Z,46.79
2019-03-04T08:56:32.278Z,47.33
2019-03-04T08:59:00.534Z,48.50
2019-03-04T09:01:31.124Z,48.39
2019-03-04T09:03:58.825Z,47.67
2019-03-04T09:06:27.080Z,48.82
2019-03-04T09:08:55.355Z,47.75
2019-03-04T09:11:23.651Z,48.59
2019-03-04T09:13:51.905Z,49.71
2019-03-04T09:16:20.184Z,49.74
2019-03-04T09:18:48.465Z,49.19
2019-03-04T09:21:16.733Z,48.54
2019-03-04T09:23:44.989Z,49.07
2019-03-04T09:26:13.255Z,48.49
2019-03-04T09:28:41.517Z,48.62
2019-03-04T09:31:09.808Z,48.37
2019-03-04T09:33:39.713Z,48.10
2019-03-04T09:36:08.009Z,49.11
2019-03-04T09:38:36.283Z,49.30
2019-03-04T09:41:04.553Z,47.94
2019-03-04T09:43:32.813Z,48.36
2019-03-04T09:46:01.101Z,48.66
2019-03-04T09:48:29.358Z,48.50
2019-03-04T09:50:57.604Z,47.98
2019-03-04T09:53:38.832Z,47.54
2019-03-04T09:56:00.007Z,47.76
2019-03-04T09:58:28.261Z,46.19
2019-03-04T10:01:14.852Z,45.76
2019-03-04T10:03:52.526Z,45.37
2019-03-04T10:06:42.158Z,44.52
2019-03-04T10:09:24.953Z,45.13
2019-03-04T10:12:25.492Z,44.82
2019-03-04T10:15:16.756Z,43.96
2019-03-04T10:17:54.179Z,44.58
2019-03-04T10:20:53.144Z,43.49
2019-03-04T10:23:30.467Z,42.38
2019-03-04T10:26:36.726Z,40.56
2019-03-04T10:29:27.560Z,41.70
2019-03-04T10:32:04.635Z,42.45
2019-03-04T10:34:51.447Z,43.02
2019-03-04T10:37:40.896Z,43.51
2019-03-04T10:40:48.718Z,43.94
2019-03-04T10:43:27.725Z,43.37
2019-03-04T10:46:08.174Z,43.34
2019-03-04T10:48:36.438Z,42.35
2019-03-04T10:51:04.709Z,42.60
2019-03-04T10:53:33.011Z,43.25
2019-03-04T10:56:01.299Z,44.11
2019-03-04T10:58:29.597Z,44.71
2019-03-04T11:00:58.012Z,43.75
2019-03-04T11:03:26.308Z,43.90
2019-03-04T11:05:54.563Z,43.50
2019-03-04T11:08:22.855Z,43.47
2019-03-04T11:10:51.166Z,44.39
2019-03-04T11:13:19.452Z,43.94
2019-03-04T11:15:50.040Z,43.57
2019-03-04T11:18:18.341Z,43.67
2019-03-04T11:20:46.595Z,42.08
2019-03-04T11:23:15.180Z,42.80
2019-03-04T11:25:43.658Z,42.93
2019-03-04T11:28:11.920Z,42.81
2019-03-04T11:30:40.205Z,43.23
2019-03-04T11:33:08.461Z,42.96
2019-03-04T11:35:36.750Z,42.85
2019-03-04T11:38:06.718Z,42.37
2019-03-04T11:40:44.253Z,43.42
2019-03-04T11:43:12.537Z,43.64
2019-03-04T11:45:40.839Z,43.33
2019-03-04T11:48:10.159Z,43.46
2019-03-04T11:50:38.468Z,43.36
2019-03-04T11:53:06.727Z,43.14
2019-03-04T11:55:35.025Z,43.34
2019-03-04T11:58:03.295Z,43.23
2019-03-04T12:00:39.496Z,43.37
2019-03-04T12:03:07.823Z,42.30
2019-03-04T12:05:36.095Z,41.81
2019-03-04T12:08:06.423Z,42.69
2019-03-04T12:10:34.376Z,42.14
2019-03-04T12:13:02.673Z,43.10
2019-03-04T12:15:30.928Z,42.20
2019-03-04T12:17:59.196Z,41.67
2019-03-04T12:20:27.484Z,42.77
2019-03-04T12:22:55.747Z,43.23
2019-03-04T12:25:24.035Z,42.60
2019-03-04T12:27:52.292Z,42.50
2019-03-04T12:30:25.254Z,42.45
2019-03-04T12:32:54.163Z,41.78
2019-03-04T12:35:22.504Z,41.63
2019-03-04T12:37:51.219Z,41.60
2019-03-04T12:40:21.022Z,41.04
2019-03-04T12:42:49.315Z,41.39
2019-03-04T12:45:20.450Z,40.89
2019-03-04T12:47:48.697Z,40.50
2019-03-04T12:50:25.154Z,40.30
2019-03-04T12:52:53.894Z,40.60
2019-03-04T12:55:22.210Z,39.46
2019-03-04T12:57:50.478Z,39.59
2019-03-04T13:00:24.766Z,39.53
2019-03-04T13:02:57.634Z,38.75
2019-03-04T13:05:23.400Z,38.81
2019-03-04T13:07:51.683Z,38.54
2019-03-04T13:10:20.452Z,38.32
2019-03-04T13:12:48.737Z,37.50
2019-03-04T13:15:25.677Z,38.21
2019-03-04T13:17:53.947Z,37.07
2019-03-04T13:20:23.767Z,36.78
2019-03-04T13:22:52.027Z,35.79
2019-03-04T13:25:21.486Z,35.33
2019-03-04T13:27:49.759Z,34.55
2019-03-04T13:30:26.167Z,33.47
2019-03-04T13:39:45.381Z,31.78
2019-03-04T13:42:13.641Z,31.32
2019-03-04T13:44:41.932Z,30.74
2019-03-04T13:47:10.224Z,31.49
2019-03-04T13:49:38.488Z,31.93
2019-03-04T13:52:07.791Z,30.30
2019-03-04T13:54:36.050Z,31.09
2019-03-04T13:57:04.341Z,30.35
2019-03-04T13:59:32.595Z,30.25
2019-03-04T14:02:00.876Z,30.32
2019-03-04T14:04:29.152Z,30.19
2019-03-04T14:06:57.423Z,30.42
2019-03-04T14:09:27.416Z,30.26
2019-03-04T14:11:55.688Z,30.46
2019-03-04T14:14:25.593Z,30.92
2019-03-04T14:16:53.890Z,30.72
2019-03-04T14:19:24.180Z,30.38
2019-03-04T14:21:52.170Z,30.65
2019-03-04T14:24:20.428Z,30.80
2019-03-04T14:26:48.725Z,31.15
2019-03-04T14:29:16.984Z,30.80
2019-03-04T14:31:45.249Z,30.46
2019-03-04T14:34:14.750Z,29.85
2019-03-04T14:36:42.966Z,29.07
2019-03-04T14:39:13.529Z,30.01
2019-03-04T14:41:41.819Z,30.65
2019-03-04T14:44:10.085Z,30.67
2019-03-04T14:46:38.375Z,30.92
2019-03-04T14:49:06.641Z,31.02
2019-03-04T14:51:34.929Z,31.06
2019-03-04T14:54:03.195Z,31.70
2019-03-04T14:56:31.489Z,32.08
2019-03-04T14:59:10.220Z,31.72
2019-03-04T15:01:31.407Z,32.72
2019-03-04T15:04:02.590Z,32.88
2019-03-04T15:06:32.386Z,32.60
2019-03-04T15:09:00.657Z,32.27
2019-03-04T15:11:28.928Z,32.96
2019-03-04T15:13:57.226Z,33.23
2019-03-04T15:16:25.498Z,32.94
2019-03-04T15:18:53.784Z,33.04
2019-03-04T15:21:22.085Z,32.68
2019-03-04T15:23:50.384Z,32.64
2019-03-04T15:26:18.650Z,32.75
2019-03-04T15:28:47.080Z,31.89
2019-03-04T15:31:15.405Z,33.06
2019-03-04T15:33:43.666Z,33.61
2019-03-04T15:36:11.959Z,33.91
2019-03-04T15:38:40.238Z,34.59
2019-03-04T15:41:08.498Z,35.28
2019-03-04T15:43:36.787Z,35.29
2019-03-04T15:46:05.047Z,35.55
2019-03-04T15:48:35.438Z,35.69
2019-03-04T15:51:03.703Z,35.94
2019-03-04T15:53:33.233Z,36.38
2019-03-04T15:56:02.796Z,35.90
2019-03-04T15:58:31.012Z,36.58
2019-03-04T16:00:59.303Z,36.72
2019-03-04T16:03:27.568Z,36.65
2019-03-04T16:05:55.876Z,36.92
2019-03-04T16:08:24.113Z,37.17
2019-03-04T16:10:52.418Z,37.36
2019-03-04T16:13:20.677Z,37.26
2019-03-04T16:15:48.955Z,37.50
2019-03-04T16:18:17.225Z,37.63
2019-03-04T16:20:45.526Z,37.80
2019-03-04T16:23:14.937Z,37.98
2019-03-04T16:25:43.249Z,37.75
2019-03-04T16:28:17.268Z,37.44
2019-03-04T16:30:47.333Z,37.53
2019-03-04T16:33:15.604Z,36.90
2019-03-04T16:35:43.893Z,37.56
2019-03-04T16:38:13.020Z,37.84
2019-03-04T16:40:41.326Z,38.57
2019-03-04T16:43:09.632Z,37.89
2019-03-04T16:45:38.967Z,38.16
2019-03-04T16:48:07.266Z,37.68
2019-03-04T16:50:42.840Z,37.88
2019-03-04T16:53:26.653Z,38.01
2019-03-04T16:55:54.930Z,38.50
2019-03-04T16:58:23.217Z,38.87
2019-03-04T17:00:51.795Z,38.92
2019-03-04T17:03:20.062Z,39.33
2019-03-04T17:05:48.338Z,39.14
2019-03-04T17:08:16.639Z,39.33
2019-03-04T17:10:45.095Z,38.28
2019-03-04T17:13:13.362Z,37.19
2019-03-04T17:15:41.657Z,37.25
2019-03-04T17:18:09.918Z,37.29
2019-03-04T17:20:39.119Z,38.00
2019-03-04T17:23:07.486Z,38.65
2019-03-04T17:25:37.675Z,39.06
2019-03-04T17:28:05.969Z,38.73
2019-03-04T17:30:34.262Z,38.28
2019-03-04T17:33:02.535Z,39.14
2019-03-04T17:35:30.831Z,38.63
2019-03-04T17:37:59.105Z,39.33
2019-03-04T17:40:33.001Z,40.44
2019-03-04T17:43:01.293Z,43.10
2019-03-04T17:45:29.565Z,45.14
2019-03-04T17:47:58.908Z,48.17
2019-03-04T17:50:37.832Z,48.96
2019-03-04T17:53:08.444Z,51.35
2019-03-04T17:55:36.724Z,51.97
2019-03-04T17:58:04.980Z,51.80
2019-03-04T18:00:35.599Z,51.26
2019-03-04T18:03:03.854Z,52.17
2019-03-04T18:05:32.129Z,52.64
2019-03-04T18:08:00.407Z,53.09
2019-03-04T18:10:28.692Z,52.85
2019-03-04T18:12:59.218Z,53.31
2019-03-04T18:15:33.249Z,53.30
2019-03-04T18:18:01.505Z,55.49
2019-03-04T18:20:34.381Z,55.94
2019-03-04T18:22:59.764Z,56.89
2019-03-04T18:25:34.378Z,59.64
2019-03-04T18:28:05.928Z,61.95
2019-03-04T18:31:08.806Z,64.75
2019-03-04T18:33:40.340Z,65.75
2019-03-04T18:36:40.499Z,66.12
2019-03-04T18:39:29.940Z,67.72
2019-03-04T18:42:25.294Z,69.09
2019-03-04T18:45:08.722Z,68.34
2019-03-04T18:47:56.234Z,66.86
2019-03-04T18:50:25.449Z,67.80
2019-03-04T18:52:55.182Z,66.51
2019-03-04T18:55:23.471Z,65.55
2019-03-04T18:57:51.736Z,64.40
2019-03-04T19:00:26.092Z,63.04
2019-03-04T19:02:54.356Z,59.49
2019-03-04T19:08:13.399Z,56.62
2019-03-04T19:10:41.665Z,56.30
2019-03-04T19:13:09.959Z,57.61
2019-03-04T19:15:38.374Z,57.13
2019-03-04T19:18:06.632Z,56.73
2019-03-04T19:20:34.932Z,57.60
2019-03-04T19:23:03.187Z,57.85
2019-03-04T19:25:31.479Z,57.42
2019-03-04T19:28:02.181Z,55.12
2019-03-04T19:30:30.541Z,53.64
2019-03-04T19:32:58.807Z,52.97
2019-03-04T19:35:27.097Z,52.72
2019-03-04T19:37:55.396Z,52.97
2019-03-04T19:40:23.649Z,53.60
2019-03-04T19:42:51.946Z,53.87
2019-03-04T19:45:20.262Z,53.38
2019-03-04T19:47:48.555Z,53.56
2019-03-04T19:50:16.818Z,53.56
2019-03-04T19:52:45.177Z,53.90
2019-03-04T19:55:18.868Z,53.06
2019-03-04T19:57:47.082Z,52.68
2019-03-04T20:00:25.023Z,53.52
2019-03-04T20:02:53.473Z,53.78
2019-03-04T20:05:23.125Z,54.14
2019-03-04T20:07:51.373Z,54.76
2019-03-04T20:10:19.646Z,55.72
2019-03-04T20:12:47.972Z,58.23
2019-03-04T20:15:36.358Z,58.14
2019-03-04T20:18:06.302Z,58.62
2019-03-04T20:20:34.554Z,59.75
2019-03-04T20:23:02.839Z,60.05
2019-03-04T20:25:31.103Z,60.39
2019-03-04T20:27:59.369Z,59.38
2019-03-04T20:30:27.640Z,59.37
2019-03-04T20:32:58.288Z,58.99
2019-03-04T20:35:25.938Z,58.75
2019-03-04T20:38:15.544Z,59.24
2019-03-04T20:40:43.813Z,58.25
2019-03-04T20:43:12.105Z,59.07
2019-03-04T20:45:40.362Z,58.48
2019-03-04T20:48:08.634Z,56.88
2019-03-04T20:50:36.908Z,57.37
2019-03-04T20:53:05.201Z,57.17
2019-03-04T20:55:33.461Z,57.72
2019-03-04T20:58:03.485Z,57.47
2019-03-04T21:00:36.181Z,57.53
2019-03-04T21:03:05.821Z,55.99
2019-03-04T21:05:34.389Z,55.79
2019-03-04T21:08:02.909Z,56.59
2019-03-04T21:10:31.185Z,55.95
2019-03-04T21:13:07.159Z,55.05
2019-03-04T21:15:35.436Z,55.40
2019-03-04T21:18:05.979Z,54.34
2019-03-04T21:20:33.685Z,54.14
2019-03-04T21:23:01.971Z,54.34
2019-03-04T21:25:41.588Z,53.65
2019-03-04T21:28:16.130Z,53.90
2019-03-04T21:31:06.998Z,54.15
2019-03-04T21:33:56.708Z,53.54
2019-03-04T21:36:44.827Z,53.47
2019-03-04T21:39:19.294Z,53.52
2019-03-04T21:41:53.636Z,53.28
2019-03-04T21:44:41.591Z,52.79
2019-03-04T21:47:25.180Z,52.52
2019-03-04T21:49:53.565Z,52.46
2019-03-04T21:52:42.849Z,52.30
2019-03-04T21:55:17.178Z,52.28
2019-03-04T21:57:48.204Z,51.29
2019-03-04T22:00:23.792Z,49.87
2019-03-04T22:02:58.587Z,49.55
2019-03-04T22:05:26.844Z,50.16
2019-03-04T22:07:55.100Z,49.85
2019-03-04T22:10:23.398Z,50.01
2019-03-04T22:12:51.645Z,49.62
2019-03-04T22:15:19.939Z,49.53
2019-03-04T22:17:48.195Z,49.12
2019-03-04T22:20:16.516Z,48.66
2019-03-04T22:22:44.814Z,49.16
2019-03-04T22:25:14.226Z,49.42
2019-03-04T22:27:42.479Z,49.42
2019-03-04T22:30:18.376Z,50.20
2019-03-04T22:32:46.645Z,49.38
2019-03-04T22:35:17.162Z,50.53
2019-03-04T22:37:45.532Z,51.73
2019-03-04T22:40:22.457Z,51.94
2019-03-04T22:42:50.808Z,52.43
2019-03-04T22:45:20.483Z,52.31
2019-03-04T22:47:50.274Z,52.55
2019-03-04T22:50:20.499Z,51.97
2019-03-04T22:52:49.339Z,51.41
2019-03-04T22:55:29.244Z,52.36
2019-03-04T22:57:57.516Z,51.49
2019-03-04T23:00:54.744Z,51.49
2019-03-04T23:03:24.484Z,51.54
2019-03-04T23:05:55.587Z,51.00
2019-03-04T23:08:23.841Z,50.83
2019-03-04T23:10:52.111Z,50.35
2019-03-04T23:13:41.074Z,49.72
2019-03-04T23:16:15.651Z,49.56
2019-03-04T23:18:46.986Z,49.38
2019-03-04T23:21:15.238Z,50.46
2019-03-04T23:23:43.532Z,51.69
2019-03-04T23:26:11.784Z,51.01
2019-03-04T23:28:40.041Z,51.16
2019-03-04T23:31:08.321Z,51.13
2019-03-04T23:33:36.584Z,50.78
2019-03-04T23:36:04.866Z,50.91
2019-03-04T23:38:33.148Z,50.92
2019-03-04T23:41:01.429Z,51.92
2019-03-04T23:43:29.674Z,52.64
2019-03-04T23:45:57.965Z,52.58
2019-03-04T23:48:26.225Z,52.55
2019-03-04T23:50:54.691Z,52.41
2019-03-04T23:53:22.936Z,52.35
2019-03-04T23:55:51.200Z,52.32
2019-03-04T23:58:19.482Z,52.51
